sensor_id;sensor_type;location;lat;lon;timestamp;pressure;altitude;pressure_sealevel;temperature;humidity
47897;BME280;39629;51.400;5.494;2023-06-14T00:03:56;101246.13;;;16.46;80.50
47897;BME280;39629;51.400;5.494;2023-06-14T00:08:59;101246.84;;;16.54;78.96
47897;BME280;39629;51.400;5.494;2023-06-14T00:14:02;101248.88;;;16.41;80.35
47897;BME280;39629;51.400;5.494;2023-06-14T00:19:04;101252.59;;;16.34;82.44
47897;BME280;39629;51.400;5.494;2023-06-14T00:24:07;101265.28;;;16.62;78.44
47897;BME280;39629;51.400;5.494;2023-06-14T00:29:10;101266.41;;;16.50;76.31
47897;BME280;39629;51.400;5.494;2023-06-14T00:34:12;101256.38;;;16.64;73.63
47897;BME280;39629;51.400;5.494;2023-06-14T00:39:15;101268.94;;;16.58;73.64
47897;BME280;39629;51.400;5.494;2023-06-14T00:44:18;101261.53;;;16.28;77.85
47897;BME280;39629;51.400;5.494;2023-06-14T00:49:20;101264.19;;;16.30;75.08
47897;BME280;39629;51.400;5.494;2023-06-14T00:54:21;101262.22;;;16.40;74.54
47897;BME280;39629;51.400;5.494;2023-06-14T00:59:25;101265.25;;;16.18;74.81
47897;BME280;39629;51.400;5.494;2023-06-14T01:04:26;101261.78;;;16.13;75.79
47897;BME280;39629;51.400;5.494;2023-06-14T01:09:32;101266.09;;;16.18;74.91
47897;BME280;39629;51.400;5.494;2023-06-14T01:14:39;101261.25;;;15.95;79.92
47897;BME280;39629;51.400;5.494;2023-06-14T01:19:42;101262.16;;;15.94;76.45
47897;BME280;39629;51.400;5.494;2023-06-14T01:24:46;101263.97;;;15.91;75.60
47897;BME280;39629;51.400;5.494;2023-06-14T01:29:47;101270.22;;;15.90;74.34
47897;BME280;39629;51.400;5.494;2023-06-14T01:34:49;101266.34;;;16.08;74.11
47897;BME280;39629;51.400;5.494;2023-06-14T01:39:52;101269.44;;;15.83;73.86
47897;BME280;39629;51.400;5.494;2023-06-14T01:44:55;101271.25;;;15.79;76.72
47897;BME280;39629;51.400;5.494;2023-06-14T01:49:58;101266.94;;;15.74;73.57
47897;BME280;39629;51.400;5.494;2023-06-14T01:55:01;101255.34;;;15.79;71.89
47897;BME280;39629;51.400;5.494;2023-06-14T02:00:05;101260.03;;;15.65;74.08
47897;BME280;39629;51.400;5.494;2023-06-14T02:05:13;101268.16;;;15.54;74.66
47897;BME280;39629;51.400;5.494;2023-06-14T02:10:17;101268.28;;;15.48;76.73
47897;BME280;39629;51.400;5.494;2023-06-14T02:15:18;101269.28;;;15.39;73.54
47897;BME280;39629;51.400;5.494;2023-06-14T02:20:22;101266.69;;;15.36;74.48
47897;BME280;39629;51.400;5.494;2023-06-14T02:25:25;101274.91;;;15.19;77.73
47897;BME280;39629;51.400;5.494;2023-06-14T02:30:28;101277.66;;;15.10;78.79
47897;BME280;39629;51.400;5.494;2023-06-14T02:35:30;101276.09;;;14.96;78.22
47897;BME280;39629;51.400;5.494;2023-06-14T02:40:33;101279.56;;;14.98;77.79
47897;BME280;39629;51.400;5.494;2023-06-14T02:45:35;101286.84;;;14.84;78.78
47897;BME280;39629;51.400;5.494;2023-06-14T02:50:36;101284.28;;;14.78;83.59
47897;BME280;39629;51.400;5.494;2023-06-14T02:55:39;101280.06;;;14.61;85.01
47897;BME280;39629;51.400;5.494;2023-06-14T03:00:42;101287.28;;;14.50;84.87
47897;BME280;39629;51.400;5.494;2023-06-14T03:05:46;101283.88;;;14.39;88.82
47897;BME280;39629;51.400;5.494;2023-06-14T03:10:53;101288.47;;;14.21;93.02
47897;BME280;39629;51.400;5.494;2023-06-14T03:15:57;101303.59;;;14.10;100.00
47897;BME280;39629;51.400;5.494;2023-06-14T03:20:59;101306.28;;;14.05;100.00
47897;BME280;39629;51.400;5.494;2023-06-14T03:26:04;101312.56;;;13.96;100.00
47897;BME280;39629;51.400;5.494;2023-06-14T03:31:07;101309.09;;;13.85;100.00
47897;BME280;39629;51.400;5.494;2023-06-14T03:36:10;101312.69;;;13.78;100.00
47897;BME280;39629;51.400;5.494;2023-06-14T03:41:13;101310.97;;;13.71;100.00
47897;BME280;39629;51.400;5.494;2023-06-14T03:46:15;101311.00;;;13.68;100.00
47897;BME280;39629;51.400;5.494;2023-06-14T03:51:16;101313.69;;;13.60;100.00
47897;BME280;39629;51.400;5.494;2023-06-14T03:56:20;101313.69;;;13.65;100.00
47897;BME280;39629;51.400;5.494;2023-06-14T04:01:22;101318.06;;;13.66;100.00
47897;BME280;39629;51.400;5.494;2023-06-14T04:06:32;101325.97;;;13.67;100.00
47897;BME280;39629;51.400;5.494;2023-06-14T04:11:35;101324.13;;;13.77;100.00
47897;BME280;39629;51.400;5.494;2023-06-14T04:16:37;101325.00;;;13.80;100.00
47897;BME280;39629;51.400;5.494;2023-06-14T04:21:39;101333.72;;;13.93;100.00
47897;BME280;39629;51.400;5.494;2023-06-14T04:26:43;101337.03;;;14.20;100.00
47897;BME280;39629;51.400;5.494;2023-06-14T04:31:46;101336.47;;;14.70;100.00
47897;BME280;39629;51.400;5.494;2023-06-14T04:36:48;101337.63;;;15.20;100.00
47897;BME280;39629;51.400;5.494;2023-06-14T04:41:55;101327.06;;;15.75;100.00
47897;BME280;39629;51.400;5.494;2023-06-14T04:47:01;101331.34;;;16.35;100.00
47897;BME280;39629;51.400;5.494;2023-06-14T04:52:05;101342.75;;;16.85;100.00
47897;BME280;39629;51.400;5.494;2023-06-14T04:57:14;101336.47;;;17.68;100.00
47897;BME280;39629;51.400;5.494;2023-06-14T05:02:19;101335.72;;;18.32;96.63
47897;BME280;39629;51.400;5.494;2023-06-14T05:07:21;101338.19;;;18.41;90.13
47897;BME280;39629;51.400;5.494;2023-06-14T05:12:26;101343.44;;;19.05;88.02
47897;BME280;39629;51.400;5.494;2023-06-14T05:17:29;101339.47;;;18.59;90.29
47897;BME280;39629;51.400;5.494;2023-06-14T05:22:31;101344.34;;;19.63;83.21
47897;BME280;39629;51.400;5.494;2023-06-14T05:27:34;101354.47;;;20.06;78.73
47897;BME280;39629;51.400;5.494;2023-06-14T05:32:37;101350.06;;;20.05;78.84
47897;BME280;39629;51.400;5.494;2023-06-14T05:37:38;101351.72;;;19.83;75.90
47897;BME280;39629;51.400;5.494;2023-06-14T05:42:42;101350.88;;;20.83;69.16
47897;BME280;39629;51.400;5.494;2023-06-14T05:47:43;101362.28;;;19.59;69.82
47897;BME280;39629;51.400;5.494;2023-06-14T05:52:45;101364.22;;;20.59;64.15
47897;BME280;39629;51.400;5.494;2023-06-14T05:57:48;101361.94;;;20.98;66.62
47897;BME280;39629;51.400;5.494;2023-06-14T06:02:49;101374.72;;;20.66;64.85
47897;BME280;39629;51.400;5.494;2023-06-14T06:07:51;101381.72;;;21.85;62.76
47897;BME280;39629;51.400;5.494;2023-06-14T06:12:54;101378.03;;;21.43;62.81
47897;BME280;39629;51.400;5.494;2023-06-14T06:17:55;101381.16;;;21.55;64.66
47897;BME280;39629;51.400;5.494;2023-06-14T06:22:57;101389.19;;;21.77;60.14
47897;BME280;39629;51.400;5.494;2023-06-14T06:28:00;101391.38;;;21.67;59.83
47897;BME280;39629;51.400;5.494;2023-06-14T06:33:02;101392.56;;;21.60;60.59
47897;BME280;39629;51.400;5.494;2023-06-14T06:38:03;101396.59;;;22.15;55.56
47897;BME280;39629;51.400;5.494;2023-06-14T06:43:06;101409.44;;;23.47;55.63
47897;BME280;39629;51.400;5.494;2023-06-14T06:48:15;101411.81;;;21.92;52.24
47897;BME280;39629;51.400;5.494;2023-06-14T06:53:17;101411.69;;;22.38;52.70
47897;BME280;39629;51.400;5.494;2023-06-14T06:58:20;101420.84;;;22.73;51.03
47897;BME280;39629;51.400;5.494;2023-06-14T07:03:22;101424.38;;;23.15;51.40
47897;BME280;39629;51.400;5.494;2023-06-14T07:08:24;101420.94;;;22.92;49.55
47897;BME280;39629;51.400;5.494;2023-06-14T07:13:27;101433.53;;;23.30;48.18
47897;BME280;39629;51.400;5.494;2023-06-14T07:18:28;101430.47;;;23.57;49.04
47897;BME280;39629;51.400;5.494;2023-06-14T07:23:30;101434.91;;;23.77;48.16
47897;BME280;39629;51.400;5.494;2023-06-14T07:28:33;101437.09;;;23.88;46.66
47897;BME280;39629;51.400;5.494;2023-06-14T07:33:34;101438.31;;;23.61;47.50
47897;BME280;39629;51.400;5.494;2023-06-14T07:38:36;101446.28;;;23.25;44.94
47897;BME280;39629;51.400;5.494;2023-06-14T07:43:38;101465.41;;;24.49;46.75
47897;BME280;39629;51.400;5.494;2023-06-14T07:48:40;101449.06;;;24.17;44.46
47897;BME280;39629;51.400;5.494;2023-06-14T07:53:42;101465.91;;;24.21;44.50
47897;BME280;39629;51.400;5.494;2023-06-14T07:58:45;101460.84;;;24.14;45.07
47897;BME280;39629;51.400;5.494;2023-06-14T08:03:46;101470.69;;;23.96;45.07
47897;BME280;39629;51.400;5.494;2023-06-14T08:08:48;101475.28;;;24.31;42.50
47897;BME280;39629;51.400;5.494;2023-06-14T08:13:51;101470.81;;;25.17;44.43
47897;BME280;39629;51.400;5.494;2023-06-14T08:18:52;101474.78;;;24.93;43.35
47897;BME280;39629;51.400;5.494;2023-06-14T08:23:54;101474.72;;;24.42;42.31
47897;BME280;39629;51.400;5.494;2023-06-14T08:28:57;101467.28;;;24.82;43.75
47897;BME280;39629;51.400;5.494;2023-06-14T08:33:59;101466.16;;;24.86;41.78
47897;BME280;39629;51.400;5.494;2023-06-14T08:39:00;101457.88;;;25.24;36.68
47897;BME280;39629;51.400;5.494;2023-06-14T08:44:03;101459.41;;;25.12;36.72
47897;BME280;39629;51.400;5.494;2023-06-14T08:49:06;101456.69;;;25.62;36.47
47897;BME280;39629;51.400;5.494;2023-06-14T08:54:11;101454.38;;;25.56;35.13
47897;BME280;39629;51.400;5.494;2023-06-14T08:59:15;101452.59;;;25.71;35.52
47897;BME280;39629;51.400;5.494;2023-06-14T09:04:18;101458.44;;;26.41;33.09
47897;BME280;39629;51.400;5.494;2023-06-14T09:09:22;101461.91;;;26.74;33.47
47897;BME280;39629;51.400;5.494;2023-06-14T09:14:25;101460.84;;;26.46;31.45
47897;BME280;39629;51.400;5.494;2023-06-14T09:19:28;101450.56;;;27.12;32.03
47897;BME280;39629;51.400;5.494;2023-06-14T09:24:29;101456.13;;;26.65;28.73
47897;BME280;39629;51.400;5.494;2023-06-14T09:29:32;101461.75;;;26.00;27.23
47897;BME280;39629;51.400;5.494;2023-06-14T09:34:35;101470.09;;;26.11;27.63
47897;BME280;39629;51.400;5.494;2023-06-14T09:39:49;101458.00;;;27.37;25.98
47897;BME280;39629;51.400;5.494;2023-06-14T09:44:53;101473.47;;;27.35;27.13
47897;BME280;39629;51.400;5.494;2023-06-14T09:49:55;101466.47;;;27.02;25.79
47897;BME280;39629;51.400;5.494;2023-06-14T09:54:59;101471.50;;;26.94;26.79
47897;BME280;39629;51.400;5.494;2023-06-14T10:00:02;101468.94;;;26.46;27.21
47897;BME280;39629;51.400;5.494;2023-06-14T10:05:15;101466.69;;;26.99;27.90
47897;BME280;39629;51.400;5.494;2023-06-14T10:10:18;101460.22;;;27.01;27.15
47897;BME280;39629;51.400;5.494;2023-06-14T10:15:26;101459.06;;;27.49;26.44
47897;BME280;39629;51.400;5.494;2023-06-14T10:20:37;101456.88;;;27.27;28.22
47897;BME280;39629;51.400;5.494;2023-06-14T10:25:42;101449.25;;;27.61;26.36
47897;BME280;39629;51.400;5.494;2023-06-14T10:31:05;101451.31;;;27.14;26.20
47897;BME280;39629;51.400;5.494;2023-06-14T10:36:24;101468.47;;;26.39;27.20
47897;BME280;39629;51.400;5.494;2023-06-14T10:41:28;101467.63;;;26.83;26.07
47897;BME280;39629;51.400;5.494;2023-06-14T10:46:31;101466.13;;;27.23;27.09
47897;BME280;39629;51.400;5.494;2023-06-14T10:51:39;101464.03;;;26.83;27.37
47897;BME280;39629;51.400;5.494;2023-06-14T10:56:47;101459.31;;;27.59;25.70
47897;BME280;39629;51.400;5.494;2023-06-14T11:01:57;101463.69;;;27.61;27.40
47897;BME280;39629;51.400;5.494;2023-06-14T11:07:10;101462.25;;;27.41;26.85
47897;BME280;39629;51.400;5.494;2023-06-14T11:12:21;101450.47;;;27.84;28.16
47897;BME280;39629;51.400;5.494;2023-06-14T11:17:26;101448.94;;;26.95;29.18
47897;BME280;39629;51.400;5.494;2023-06-14T11:22:27;101443.25;;;27.70;27.92
47897;BME280;39629;51.400;5.494;2023-06-14T11:27:29;101443.28;;;26.69;28.17
47897;BME280;39629;51.400;5.494;2023-06-14T11:32:32;101441.56;;;27.40;29.10
47897;BME280;39629;51.400;5.494;2023-06-14T11:37:34;101451.38;;;27.70;30.12
47897;BME280;39629;51.400;5.494;2023-06-14T11:42:36;101447.09;;;27.38;28.77
47897;BME280;39629;51.400;5.494;2023-06-14T11:47:39;101433.19;;;27.72;29.21
47897;BME280;39629;51.400;5.494;2023-06-14T11:52:41;101454.34;;;27.24;28.46
47897;BME280;39629;51.400;5.494;2023-06-14T11:57:42;101441.47;;;27.42;30.93
47897;BME280;39629;51.400;5.494;2023-06-14T12:02:53;101448.50;;;26.58;29.93
47897;BME280;39629;51.400;5.494;2023-06-14T12:07:59;101444.22;;;27.69;29.82
47897;BME280;39629;51.400;5.494;2023-06-14T12:13:01;101443.69;;;26.92;30.38
47897;BME280;39629;51.400;5.494;2023-06-14T12:18:06;101444.88;;;27.02;28.68
47897;BME280;39629;51.400;5.494;2023-06-14T12:23:09;101436.88;;;27.85;28.64
47897;BME280;39629;51.400;5.494;2023-06-14T12:28:10;101441.41;;;27.29;29.32
47897;BME280;39629;51.400;5.494;2023-06-14T12:33:13;101436.88;;;27.85;29.30
47897;BME280;39629;51.400;5.494;2023-06-14T12:38:15;101445.41;;;26.64;30.36
47897;BME280;39629;51.400;5.494;2023-06-14T12:43:17;101440.03;;;27.50;28.38
47897;BME280;39629;51.400;5.494;2023-06-14T12:48:20;101445.94;;;26.85;29.52
47897;BME280;39629;51.400;5.494;2023-06-14T12:53:22;101437.59;;;27.60;30.66
47897;BME280;39629;51.400;5.494;2023-06-14T12:58:24;101441.38;;;27.85;29.73
47897;BME280;39629;51.400;5.494;2023-06-14T13:03:26;101434.84;;;27.89;29.41
47897;BME280;39629;51.400;5.494;2023-06-14T13:08:28;101447.59;;;27.87;26.06
47897;BME280;39629;51.400;5.494;2023-06-14T13:13:30;101445.28;;;27.25;27.67
47897;BME280;39629;51.400;5.494;2023-06-14T13:18:33;101454.66;;;27.33;29.39
47897;BME280;39629;51.400;5.494;2023-06-14T13:23:35;101453.09;;;28.13;28.19
47897;BME280;39629;51.400;5.494;2023-06-14T13:28:36;101446.44;;;27.35;28.64
47897;BME280;39629;51.400;5.494;2023-06-14T13:33:39;101448.84;;;27.40;27.72
47897;BME280;39629;51.400;5.494;2023-06-14T13:38:40;101447.59;;;27.31;28.00
47897;BME280;39629;51.400;5.494;2023-06-14T13:43:42;101454.66;;;27.75;27.03
47897;BME280;39629;51.400;5.494;2023-06-14T13:48:45;101433.84;;;28.17;26.61
47897;BME280;39629;51.400;5.494;2023-06-14T13:53:48;101434.78;;;27.62;28.58
47897;BME280;39629;51.400;5.494;2023-06-14T13:58:51;101438.97;;;27.80;29.00
47897;BME280;39629;51.400;5.494;2023-06-14T14:03:54;101434.31;;;27.55;27.27
47897;BME280;39629;51.400;5.494;2023-06-14T14:08:55;101441.19;;;26.74;26.99
47897;BME280;39629;51.400;5.494;2023-06-14T14:13:57;101434.47;;;27.39;28.58
47897;BME280;39629;51.400;5.494;2023-06-14T14:19:00;101429.16;;;27.23;27.43
47897;BME280;39629;51.400;5.494;2023-06-14T14:24:03;101425.84;;;26.30;28.34
47897;BME280;39629;51.400;5.494;2023-06-14T14:29:05;101422.66;;;27.40;28.78
47897;BME280;39629;51.400;5.494;2023-06-14T14:34:08;101435.31;;;26.96;28.83
47897;BME280;39629;51.400;5.494;2023-06-14T14:39:10;101431.81;;;27.52;26.91
47897;BME280;39629;51.400;5.494;2023-06-14T14:44:11;101438.44;;;26.60;29.50
47897;BME280;39629;51.400;5.494;2023-06-14T14:49:14;101434.34;;;27.12;29.30
47897;BME280;39629;51.400;5.494;2023-06-14T14:54:16;101431.13;;;26.62;29.41
47897;BME280;39629;51.400;5.494;2023-06-14T14:59:17;101439.75;;;26.83;29.35
47897;BME280;39629;51.400;5.494;2023-06-14T15:04:23;101433.19;;;27.16;29.14
47897;BME280;39629;51.400;5.494;2023-06-14T15:09:24;101435.13;;;26.85;28.61
47897;BME280;39629;51.400;5.494;2023-06-14T15:14:26;101426.72;;;26.90;28.82
47897;BME280;39629;51.400;5.494;2023-06-14T15:19:29;101437.34;;;26.78;28.35
47897;BME280;39629;51.400;5.494;2023-06-14T15:24:30;101437.16;;;27.10;28.00
47897;BME280;39629;51.400;5.494;2023-06-14T15:29:33;101436.94;;;26.70;27.60
47897;BME280;39629;51.400;5.494;2023-06-14T15:34:36;101429.25;;;27.07;30.39
47897;BME280;39629;51.400;5.494;2023-06-14T15:39:39;101435.16;;;26.24;30.16
47897;BME280;39629;51.400;5.494;2023-06-14T15:44:40;101436.41;;;26.18;29.73
47897;BME280;39629;51.400;5.494;2023-06-14T15:49:44;101435.69;;;26.45;28.62
47897;BME280;39629;51.400;5.494;2023-06-14T15:54:45;101430.78;;;25.91;29.69
47897;BME280;39629;51.400;5.494;2023-06-14T15:59:47;101433.22;;;25.96;29.93
47897;BME280;39629;51.400;5.494;2023-06-14T16:04:50;101429.53;;;26.13;29.67
47897;BME280;39629;51.400;5.494;2023-06-14T16:09:51;101424.28;;;25.79;28.96
47897;BME280;39629;51.400;5.494;2023-06-14T16:14:53;101429.03;;;25.90;28.75
47897;BME280;39629;51.400;5.494;2023-06-14T16:19:56;101419.59;;;25.67;29.18
47897;BME280;39629;51.400;5.494;2023-06-14T16:24:57;101426.38;;;26.20;29.76
47897;BME280;39629;51.400;5.494;2023-06-14T16:29:59;101426.78;;;25.66;30.03
47897;BME280;39629;51.400;5.494;2023-06-14T16:35:01;101423.78;;;26.19;30.64
47897;BME280;39629;51.400;5.494;2023-06-14T16:40:04;101430.50;;;25.64;31.07
47897;BME280;39629;51.400;5.494;2023-06-14T16:45:06;101433.66;;;25.24;31.51
47897;BME280;39629;51.400;5.494;2023-06-14T16:50:10;101429.88;;;25.11;30.91
47897;BME280;39629;51.400;5.494;2023-06-14T16:55:11;101439.75;;;25.10;31.31
47897;BME280;39629;51.400;5.494;2023-06-14T17:00:13;101436.88;;;24.97;31.11
47897;BME280;39629;51.400;5.494;2023-06-14T17:05:16;101439.31;;;25.02;32.21
47897;BME280;39629;51.400;5.494;2023-06-14T17:10:18;101448.38;;;24.83;32.01
47897;BME280;39629;51.400;5.494;2023-06-14T17:15:20;101453.41;;;24.90;31.62
47897;BME280;39629;51.400;5.494;2023-06-14T17:20:23;101453.31;;;24.58;32.59
47897;BME280;39629;51.400;5.494;2023-06-14T17:25:25;101453.78;;;24.48;32.94
47897;BME280;39629;51.400;5.494;2023-06-14T17:30:26;101458.81;;;24.37;32.91
47897;BME280;39629;51.400;5.494;2023-06-14T17:35:29;101464.06;;;24.40;32.13
47897;BME280;39629;51.400;5.494;2023-06-14T17:40:32;101467.97;;;24.15;32.53
47897;BME280;39629;51.400;5.494;2023-06-14T17:45:34;101469.31;;;24.24;33.03
47897;BME280;39629;51.400;5.494;2023-06-14T17:50:37;101473.41;;;24.14;32.62
47897;BME280;39629;51.400;5.494;2023-06-14T17:55:39;101480.59;;;24.13;33.00
47897;BME280;39629;51.400;5.494;2023-06-14T18:00:40;101481.66;;;23.92;33.09
47897;BME280;39629;51.400;5.494;2023-06-14T18:05:43;101477.03;;;23.76;33.53
47897;BME280;39629;51.400;5.494;2023-06-14T18:10:45;101485.00;;;23.78;32.59
47897;BME280;39629;51.400;5.494;2023-06-14T18:15:46;101485.09;;;23.76;33.60
47897;BME280;39629;51.400;5.494;2023-06-14T18:20:49;101494.88;;;23.39;36.24
47897;BME280;39629;51.400;5.494;2023-06-14T18:25:51;101492.22;;;23.19;36.68
47897;BME280;39629;51.400;5.494;2023-06-14T18:30:53;101493.72;;;23.05;36.05
47897;BME280;39629;51.400;5.494;2023-06-14T18:35:56;101500.16;;;23.01;36.45
47897;BME280;39629;51.400;5.494;2023-06-14T18:40:58;101501.09;;;23.00;36.58
47897;BME280;39629;51.400;5.494;2023-06-14T18:45:59;101502.16;;;22.96;36.11
47897;BME280;39629;51.400;5.494;2023-06-14T18:51:02;101509.72;;;23.27;36.11
47897;BME280;39629;51.400;5.494;2023-06-14T18:56:04;101514.09;;;22.68;36.87
47897;BME280;39629;51.400;5.494;2023-06-14T19:01:05;101509.59;;;22.48;38.28
47897;BME280;39629;51.400;5.494;2023-06-14T19:06:08;101516.22;;;22.39;38.70
47897;BME280;39629;51.400;5.494;2023-06-14T19:11:10;101518.50;;;22.26;38.98
47897;BME280;39629;51.400;5.494;2023-06-14T19:16:11;101522.00;;;22.06;39.95
47897;BME280;39629;51.400;5.494;2023-06-14T19:21:14;101528.75;;;21.93;39.96
47897;BME280;39629;51.400;5.494;2023-06-14T19:26:16;101528.66;;;21.72;40.55
47897;BME280;39629;51.400;5.494;2023-06-14T19:31:17;101525.97;;;21.49;42.11
47897;BME280;39629;51.400;5.494;2023-06-14T19:36:20;101530.28;;;21.29;43.30
47897;BME280;39629;51.400;5.494;2023-06-14T19:41:22;101536.16;;;21.14;43.41
47897;BME280;39629;51.400;5.494;2023-06-14T19:46:25;101542.44;;;21.13;43.12
47897;BME280;39629;51.400;5.494;2023-06-14T19:51:28;101548.50;;;20.92;44.05
47897;BME280;39629;51.400;5.494;2023-06-14T19:56:30;101556.03;;;20.81;44.30
47897;BME280;39629;51.400;5.494;2023-06-14T20:01:31;101560.44;;;20.55;45.51
47897;BME280;39629;51.400;5.494;2023-06-14T20:06:34;101566.78;;;20.53;44.76
47897;BME280;39629;51.400;5.494;2023-06-14T20:11:36;101570.97;;;20.33;45.98
47897;BME280;39629;51.400;5.494;2023-06-14T20:16:37;101574.16;;;20.16;50.04
47897;BME280;39629;51.400;5.494;2023-06-14T20:21:40;101576.97;;;20.12;47.10
47897;BME280;39629;51.400;5.494;2023-06-14T20:26:42;101577.53;;;19.93;47.81
47897;BME280;39629;51.400;5.494;2023-06-14T20:31:43;101590.81;;;19.65;51.75
47897;BME280;39629;51.400;5.494;2023-06-14T20:36:46;101596.66;;;19.48;50.71
47897;BME280;39629;51.400;5.494;2023-06-14T20:41:47;101601.53;;;19.30;51.59
47897;BME280;39629;51.400;5.494;2023-06-14T20:46:49;101588.75;;;19.08;56.02
47897;BME280;39629;51.400;5.494;2023-06-14T20:51:53;101601.69;;;18.91;60.63
47897;BME280;39629;51.400;5.494;2023-06-14T20:56:54;101606.41;;;18.80;56.25
47897;BME280;39629;51.400;5.494;2023-06-14T21:01:56;101610.50;;;18.57;57.84
47897;BME280;39629;51.400;5.494;2023-06-14T21:06:58;101613.53;;;18.42;58.67
47897;BME280;39629;51.400;5.494;2023-06-14T21:12:00;101609.34;;;18.30;63.02
47897;BME280;39629;51.400;5.494;2023-06-14T21:17:03;101614.13;;;18.14;59.80
47897;BME280;39629;51.400;5.494;2023-06-14T21:22:07;101616.25;;;17.98;62.38
47897;BME280;39629;51.400;5.494;2023-06-14T21:27:10;101615.56;;;17.88;67.49
47897;BME280;39629;51.400;5.494;2023-06-14T21:32:12;101618.53;;;17.73;62.82
47897;BME280;39629;51.400;5.494;2023-06-14T21:37:15;101622.28;;;17.62;64.09
47897;BME280;39629;51.400;5.494;2023-06-14T21:42:16;101627.88;;;17.48;63.71
47897;BME280;39629;51.400;5.494;2023-06-14T21:47:18;101620.16;;;17.33;72.45
47897;BME280;39629;51.400;5.494;2023-06-14T21:52:21;101632.81;;;17.18;77.32
47897;BME280;39629;51.400;5.494;2023-06-14T21:57:22;101640.16;;;17.04;78.25
47897;BME280;39629;51.400;5.494;2023-06-14T22:02:24;101634.25;;;16.88;87.56
47897;BME280;39629;51.400;5.494;2023-06-14T22:07:27;101636.19;;;16.77;88.92
47897;BME280;39629;51.400;5.494;2023-06-14T22:12:31;101639.00;;;16.67;89.23
47897;BME280;39629;51.400;5.494;2023-06-14T22:17:32;101639.06;;;16.61;87.71
47897;BME280;39629;51.400;5.494;2023-06-14T22:22:36;101645.34;;;16.57;87.98
47897;BME280;39629;51.400;5.494;2023-06-14T22:27:38;101643.59;;;16.56;86.96
47897;BME280;39629;51.400;5.494;2023-06-14T22:32:45;101640.13;;;16.51;87.21
47897;BME280;39629;51.400;5.494;2023-06-14T22:37:49;101647.41;;;16.38;89.13
47897;BME280;39629;51.400;5.494;2023-06-14T22:42:50;101645.72;;;16.29;99.83
47897;BME280;39629;51.400;5.494;2023-06-14T22:47:53;101637.97;;;16.12;98.01
47897;BME280;39629;51.400;5.494;2023-06-14T22:52:56;101653.94;;;16.09;94.00
47897;BME280;39629;51.400;5.494;2023-06-14T22:57:57;101641.78;;;15.91;100.00
47897;BME280;39629;51.400;5.494;2023-06-14T23:03:00;101647.16;;;15.83;100.00
47897;BME280;39629;51.400;5.494;2023-06-14T23:08:03;101646.44;;;15.71;100.00
47897;BME280;39629;51.400;5.494;2023-06-14T23:13:05;101647.44;;;15.59;100.00
47897;BME280;39629;51.400;5.494;2023-06-14T23:18:06;101648.41;;;15.52;100.00
47897;BME280;39629;51.400;5.494;2023-06-14T23:23:09;101645.84;;;15.44;100.00
47897;BME280;39629;51.400;5.494;2023-06-14T23:28:11;101650.28;;;15.42;100.00
47897;BME280;39629;51.400;5.494;2023-06-14T23:33:17;101648.66;;;15.25;100.00
47897;BME280;39629;51.400;5.494;2023-06-14T23:38:20;101654.97;;;15.13;100.00
47897;BME280;39629;51.400;5.494;2023-06-14T23:43:21;101655.88;;;15.05;100.00
47897;BME280;39629;51.400;5.494;2023-06-14T23:48:24;101656.91;;;14.87;100.00
47897;BME280;39629;51.400;5.494;2023-06-14T23:53:28;101649.97;;;14.67;100.00
47897;BME280;39629;51.400;5.494;2023-06-14T23:58:29;101661.47;;;14.63;100.00
